createdAt,value
2023-06-23T00:01:04.553Z,14.77
2023-06-23T00:03:54.581Z,13.98
2023-06-23T00:09:24.312Z,13.52
2023-06-23T00:12:09.111Z,14.43
2023-06-23T00:14:53.738Z,14.30
2023-06-23T00:17:39.513Z,14.70
2023-06-23T00:20:24.378Z,13.95
2023-06-23T00:23:09.433Z,15.82
2023-06-23T00:25:54.609Z,14.43
2023-06-23T00:28:39.564Z,15.40
2023-06-23T00:31:25.687Z,15.23
2023-06-23T00:34:10.522Z,14.55
2023-06-23T00:36:55.613Z,14.23
2023-06-23T00:39:42.167Z,15.52
2023-06-23T00:42:27.525Z,14.10
2023-06-23T00:45:12.401Z,14.90
2023-06-23T00:47:57.177Z,14.65
2023-06-23T00:50:42.587Z,14.65
2023-06-23T00:53:28.583Z,14.95
2023-06-23T00:56:15.145Z,15.38
2023-06-23T00:59:00.180Z,15.35
2023-06-23T01:01:45.128Z,14.85
2023-06-23T01:04:35.099Z,15.20
2023-06-23T01:07:21.615Z,13.82
2023-06-23T01:10:12.619Z,13.93
2023-06-23T01:13:03.246Z,14.50
2023-06-23T01:15:58.592Z,15.90
2023-06-23T01:19:03.563Z,15.50
2023-06-23T01:22:19.247Z,15.18
2023-06-23T01:25:36.439Z,15.57
2023-06-23T01:28:46.629Z,16.08
2023-06-23T01:31:37.199Z,15.50
2023-06-23T01:34:35.099Z,15.88
2023-06-23T01:37:44.985Z,15.07
2023-06-23T01:40:31.219Z,15.95
2023-06-23T01:43:18.051Z,16.15
2023-06-23T01:46:17.196Z,15.40
2023-06-23T01:49:11.776Z,14.98
2023-06-23T01:51:57.752Z,14.80
2023-06-23T01:54:43.844Z,14.52
2023-06-23T01:57:31.216Z,14.48
2023-06-23T02:01:01.638Z,15.18
2023-06-23T02:03:48.640Z,14.63
2023-06-23T02:06:37.562Z,14.20
2023-06-23T02:09:26.392Z,14.15
2023-06-23T02:12:13.058Z,14.77
2023-06-23T02:14:57.818Z,14.93
2023-06-23T02:17:45.094Z,15.18
2023-06-23T02:20:32.347Z,14.35
2023-06-23T02:23:18.255Z,15.40
2023-06-23T02:26:07.044Z,16.60
2023-06-23T02:28:54.641Z,15.93
2023-06-23T02:31:40.537Z,15.50
2023-06-23T02:34:25.227Z,15.98
2023-06-23T02:37:10.632Z,15.70
2023-06-23T02:40:06.558Z,15.45
2023-06-23T02:43:19.320Z,15.23
2023-06-23T02:46:12.099Z,14.57
2023-06-23T02:49:04.308Z,13.95
2023-06-23T02:51:53.366Z,14.30
2023-06-23T02:54:44.514Z,14.93
2023-06-23T02:57:32.107Z,13.85
2023-06-23T03:00:22.751Z,14.13
2023-06-23T03:03:15.249Z,14.18
2023-06-23T03:06:00.384Z,13.63
2023-06-23T03:08:50.452Z,14.75
2023-06-23T03:11:37.822Z,13.85
2023-06-23T03:14:24.860Z,13.35
2023-06-23T03:17:25.825Z,13.98
2023-06-23T03:20:30.342Z,13.40
2023-06-23T03:23:17.054Z,13.70
2023-06-23T03:26:03.004Z,13.63
2023-06-23T03:28:51.284Z,15.07
2023-06-23T03:31:40.629Z,13.63
2023-06-23T03:34:34.751Z,13.07
2023-06-23T03:37:23.521Z,12.52
2023-06-23T03:40:14.313Z,13.73
2023-06-23T03:43:06.452Z,14.50
2023-06-23T03:45:55.066Z,14.60
2023-06-23T03:48:42.408Z,13.75
2023-06-23T03:51:29.418Z,15.00
2023-06-23T03:54:16.478Z,15.02
2023-06-23T03:57:05.007Z,15.18
2023-06-23T03:59:52.566Z,15.55
2023-06-23T04:02:40.260Z,15.70
2023-06-23T04:05:30.318Z,15.38
2023-06-23T04:08:19.115Z,16.20
2023-06-23T04:11:05.191Z,15.40
2023-06-23T04:13:52.472Z,15.35
2023-06-23T04:16:41.175Z,16.35
2023-06-23T04:19:29.861Z,16.17
2023-06-23T04:22:18.940Z,15.95
2023-06-23T04:25:05.792Z,15.65
2023-06-23T04:27:55.876Z,16.08
2023-06-23T04:30:42.425Z,15.55
2023-06-23T04:33:27.316Z,15.52
2023-06-23T04:36:18.637Z,13.50
2023-06-23T04:39:12.966Z,12.80
2023-06-23T04:42:05.045Z,14.13
2023-06-23T04:44:54.107Z,13.63
2023-06-23T04:47:41.005Z,13.75
2023-06-23T04:50:29.343Z,13.57
2023-06-23T04:53:19.771Z,13.75
2023-06-23T04:56:07.045Z,13.43
2023-06-23T04:58:57.772Z,14.40
2023-06-23T05:01:44.514Z,14.45
2023-06-23T05:04:32.768Z,13.43
2023-06-23T05:07:18.989Z,13.85
2023-06-23T05:10:05.949Z,14.23
2023-06-23T05:12:52.922Z,14.18
2023-06-23T05:15:38.017Z,14.85
2023-06-23T05:18:23.958Z,14.32
2023-06-23T05:21:10.830Z,15.07
2023-06-23T05:23:57.840Z,14.10
2023-06-23T05:26:43.948Z,13.70
2023-06-23T05:29:30.124Z,12.88
2023-06-23T05:32:18.772Z,12.73
2023-06-23T05:35:04.767Z,12.80
2023-06-23T05:37:50.694Z,13.05
2023-06-23T05:40:35.579Z,13.45
2023-06-23T05:43:20.554Z,13.93
2023-06-23T05:46:12.359Z,12.73
2023-06-23T05:49:06.239Z,14.45
2023-06-23T05:51:59.637Z,13.38
2023-06-23T05:54:47.979Z,13.75
2023-06-23T05:57:35.977Z,13.48
2023-06-23T06:00:26.255Z,12.48
2023-06-23T06:03:15.780Z,12.40
2023-06-23T06:06:05.157Z,13.32
2023-06-23T06:08:51.818Z,13.95
2023-06-23T06:11:38.891Z,13.27
2023-06-23T06:14:26.809Z,13.90
2023-06-23T06:17:12.618Z,13.63
2023-06-23T06:20:01.456Z,12.98
2023-06-23T06:22:49.006Z,12.95
2023-06-23T06:25:37.119Z,12.43
2023-06-23T06:28:24.810Z,15.90
2023-06-23T06:31:10.910Z,13.82
2023-06-23T06:33:59.313Z,13.82
2023-06-23T06:36:45.163Z,13.73
2023-06-23T06:39:31.380Z,13.65
2023-06-23T06:42:16.138Z,15.13
2023-06-23T06:45:01.229Z,13.80
2023-06-23T06:47:47.993Z,15.10
2023-06-23T06:50:33.696Z,14.00
2023-06-23T06:53:20.018Z,13.88
2023-06-23T06:56:05.788Z,15.07
2023-06-23T06:58:51.748Z,13.63
2023-06-23T07:01:38.718Z,14.85
2023-06-23T07:04:25.470Z,15.52
2023-06-23T07:07:13.930Z,14.13
2023-06-23T07:09:59.096Z,14.57
2023-06-23T07:12:43.993Z,15.23
2023-06-23T07:15:28.561Z,14.52
2023-06-23T07:18:13.737Z,13.35
2023-06-23T07:21:00.560Z,13.68
2023-06-23T07:23:45.168Z,12.80
2023-06-23T07:26:30.494Z,13.88
2023-06-23T07:29:15.267Z,13.10
2023-06-23T07:32:01.684Z,13.65
2023-06-23T07:34:46.813Z,13.05
2023-06-23T07:37:31.545Z,12.48
2023-06-23T07:40:16.544Z,12.93
2023-06-23T07:43:01.496Z,13.07
2023-06-23T07:45:46.966Z,13.13
2023-06-23T07:48:31.857Z,12.60
2023-06-23T07:51:17.346Z,12.55
2023-06-23T07:54:07.458Z,12.50
2023-06-23T07:56:52.954Z,11.98
2023-06-23T07:59:38.034Z,11.95
2023-06-23T08:02:23.097Z,10.77
2023-06-23T08:05:08.942Z,9.73
2023-06-23T08:07:53.919Z,9.65
2023-06-23T08:10:38.369Z,8.10
2023-06-23T08:13:23.541Z,9.07
2023-06-23T08:16:08.656Z,8.32
2023-06-23T08:18:54.145Z,9.40
2023-06-23T08:21:39.173Z,10.93
2023-06-23T08:24:24.378Z,10.43
2023-06-23T08:27:09.558Z,10.55
2023-06-23T08:29:55.134Z,10.23
2023-06-23T08:32:39.997Z,9.25
2023-06-23T08:35:25.231Z,9.90
2023-06-23T08:38:13.429Z,10.45
2023-06-23T08:40:59.019Z,10.48
2023-06-23T08:43:48.761Z,9.77
2023-06-23T08:46:47.559Z,12.05
2023-06-23T08:49:40.436Z,11.70
2023-06-23T08:52:25.586Z,11.48
2023-06-23T08:55:11.319Z,11.13
2023-06-23T08:58:01.043Z,12.45
2023-06-23T09:00:46.945Z,11.45
2023-06-23T09:03:32.582Z,10.85
2023-06-23T09:06:17.586Z,9.32
2023-06-23T09:09:02.890Z,10.25
2023-06-23T09:11:48.248Z,10.13
2023-06-23T09:14:35.614Z,10.63
2023-06-23T09:17:21.192Z,9.40
2023-06-23T09:20:07.239Z,9.43
2023-06-23T09:22:55.485Z,8.93
2023-06-23T09:25:52.131Z,8.90
2023-06-23T09:28:37.498Z,8.75
2023-06-23T09:31:23.532Z,8.85
2023-06-23T09:34:08.675Z,9.20
2023-06-23T09:37:05.512Z,10.70
2023-06-23T09:39:55.670Z,10.65
2023-06-23T09:42:45.141Z,10.90
2023-06-23T09:45:30.989Z,11.15
2023-06-23T09:48:17.897Z,10.85
2023-06-23T09:51:04.702Z,10.52
2023-06-23T09:53:49.785Z,10.95
2023-06-23T09:56:35.588Z,9.82
2023-06-23T09:59:22.298Z,10.95
2023-06-23T10:02:08.833Z,10.35
2023-06-23T10:05:02.380Z,10.10
2023-06-23T10:07:47.140Z,9.68
2023-06-23T10:10:33.000Z,9.45
2023-06-23T10:13:18.068Z,9.18
2023-06-23T10:16:03.659Z,9.07
2023-06-23T10:18:48.882Z,9.05
2023-06-23T10:21:34.065Z,9.43
2023-06-23T10:24:19.918Z,8.52
2023-06-23T10:27:06.089Z,8.10
2023-06-23T10:29:54.422Z,7.85
2023-06-23T10:32:44.432Z,8.00
2023-06-23T10:35:32.476Z,8.30
2023-06-23T10:38:27.126Z,8.23
2023-06-23T10:41:13.663Z,7.53
2023-06-23T10:44:00.279Z,8.43
2023-06-23T10:46:47.165Z,8.27
2023-06-23T10:49:32.056Z,8.18
2023-06-23T10:52:17.196Z,8.18
2023-06-23T10:55:02.258Z,8.57
2023-06-23T10:58:11.283Z,8.40
2023-06-23T11:00:56.341Z,9.18
2023-06-23T11:03:41.830Z,8.93
2023-06-23T11:06:29.353Z,8.75
2023-06-23T11:09:49.870Z,8.35
2023-06-23T11:12:34.631Z,8.15
2023-06-23T11:15:25.099Z,7.25
2023-06-23T11:18:12.401Z,7.43
2023-06-23T11:21:17.620Z,7.65
2023-06-23T11:24:17.671Z,7.60
2023-06-23T11:27:03.747Z,8.43
2023-06-23T11:30:14.677Z,8.23
2023-06-23T11:33:27.471Z,7.75
2023-06-23T11:36:16.629Z,8.00
2023-06-23T11:39:01.346Z,7.60
2023-06-23T11:41:46.787Z,8.00
2023-06-23T11:44:32.361Z,8.57
2023-06-23T11:47:25.135Z,7.35
2023-06-23T11:50:10.036Z,8.30
2023-06-23T11:52:55.004Z,7.20
2023-06-23T11:55:39.921Z,7.30
2023-06-23T11:58:29.367Z,6.85
2023-06-23T12:01:18.321Z,7.68
2023-06-23T12:04:06.496Z,7.90
2023-06-23T12:06:55.329Z,7.07
2023-06-23T12:09:40.350Z,7.80
2023-06-23T12:12:25.431Z,7.93
2023-06-23T12:15:10.622Z,7.45
2023-06-23T12:17:58.882Z,7.00
2023-06-23T12:20:48.108Z,7.53
2023-06-23T12:23:32.995Z,8.15
2023-06-23T12:26:19.495Z,7.28
2023-06-23T12:29:09.146Z,7.90
2023-06-23T12:34:49.230Z,7.43
2023-06-23T12:37:46.423Z,7.10
2023-06-23T12:40:32.361Z,7.22
2023-06-23T12:43:18.914Z,7.40
2023-06-23T12:46:03.762Z,7.30
2023-06-23T12:48:50.149Z,7.47
2023-06-23T12:51:37.819Z,7.38
2023-06-23T12:54:22.967Z,7.43
2023-06-23T12:57:09.126Z,7.53
2023-06-23T12:59:53.842Z,7.35
2023-06-23T13:02:39.540Z,7.53
2023-06-23T13:05:26.152Z,7.70
2023-06-23T13:08:13.693Z,7.22
2023-06-23T13:10:58.622Z,7.13
2023-06-23T13:13:43.585Z,7.88
2023-06-23T13:16:28.306Z,7.93
2023-06-23T13:19:13.663Z,7.30
2023-06-23T13:21:58.436Z,7.93
2023-06-23T13:24:43.338Z,7.88
2023-06-23T13:27:27.999Z,7.13
2023-06-23T13:30:13.205Z,7.60
2023-06-23T13:32:57.864Z,7.80
2023-06-23T13:35:42.981Z,8.18
2023-06-23T13:38:27.625Z,7.57
2023-06-23T13:41:13.828Z,7.82
2023-06-23T13:43:58.563Z,7.82
2023-06-23T13:46:44.298Z,7.70
2023-06-23T13:49:29.147Z,7.90
2023-06-23T13:52:14.159Z,7.75
2023-06-23T13:54:59.025Z,7.28
2023-06-23T13:57:46.009Z,7.65
2023-06-23T14:00:32.316Z,7.25
2023-06-23T14:03:17.455Z,7.10
2023-06-23T14:06:04.269Z,7.53
2023-06-23T14:08:52.243Z,7.63
2023-06-23T14:11:37.011Z,7.50
2023-06-23T14:14:21.944Z,7.03
2023-06-23T14:17:07.031Z,7.47
2023-06-23T14:19:52.409Z,7.80
2023-06-23T14:22:37.346Z,7.38
2023-06-23T14:25:22.680Z,6.65
2023-06-23T14:28:07.316Z,7.28
2023-06-23T14:30:52.367Z,6.93
2023-06-23T14:33:37.745Z,7.45
2023-06-23T14:36:22.758Z,7.18
2023-06-23T14:39:07.335Z,7.35
2023-06-23T14:41:52.320Z,7.28
2023-06-23T14:44:37.223Z,7.32
2023-06-23T14:47:22.290Z,7.57
2023-06-23T14:50:08.631Z,7.38
2023-06-23T14:52:53.749Z,7.30
2023-06-23T14:55:39.706Z,7.78
2023-06-23T14:58:24.521Z,7.43
2023-06-23T15:01:09.650Z,7.20
2023-06-23T15:03:55.281Z,6.82
2023-06-23T15:06:39.996Z,7.43
2023-06-23T15:09:27.464Z,6.75
2023-06-23T15:12:12.541Z,6.57
2023-06-23T15:14:58.009Z,6.43
2023-06-23T15:17:42.822Z,6.50
2023-06-23T15:20:27.924Z,6.93
2023-06-23T15:23:13.051Z,6.63
2023-06-23T15:25:59.188Z,6.32
2023-06-23T15:28:44.824Z,6.03
2023-06-23T15:31:30.112Z,6.10
2023-06-23T15:34:14.713Z,6.63
2023-06-23T15:37:00.263Z,6.55
2023-06-23T15:39:45.466Z,6.32
2023-06-23T15:42:31.431Z,7.72
2023-06-23T15:45:17.403Z,7.18
2023-06-23T15:48:02.429Z,7.35
2023-06-23T15:50:48.030Z,6.57
2023-06-23T15:53:33.030Z,6.60
2023-06-23T15:56:18.033Z,6.78
2023-06-23T15:59:03.079Z,7.22
2023-06-23T16:01:47.881Z,6.80
2023-06-23T16:04:32.929Z,6.47
2023-06-23T16:07:17.847Z,6.72
2023-06-23T16:10:02.421Z,6.65
2023-06-23T16:12:47.522Z,6.72
2023-06-23T16:15:32.586Z,7.30
2023-06-23T16:18:17.457Z,7.10
2023-06-23T16:21:03.042Z,7.63
2023-06-23T16:23:47.945Z,7.38
2023-06-23T16:26:32.999Z,7.60
2023-06-23T16:29:17.918Z,7.22
2023-06-23T16:32:03.256Z,6.65
2023-06-23T16:34:47.847Z,6.50
2023-06-23T16:37:33.165Z,5.05
2023-06-23T16:40:17.911Z,4.75
2023-06-23T16:43:04.650Z,3.97
2023-06-23T16:45:49.464Z,3.90
2023-06-23T16:48:34.697Z,3.75
2023-06-23T16:51:28.624Z,3.60
2023-06-23T16:54:21.803Z,3.83
2023-06-23T16:57:09.756Z,4.60
2023-06-23T16:59:55.251Z,3.92
2023-06-23T17:02:40.430Z,4.10
2023-06-23T17:05:25.128Z,3.85
2023-06-23T17:08:11.210Z,3.90
2023-06-23T17:10:56.128Z,3.85
2023-06-23T17:13:42.399Z,4.20
2023-06-23T17:16:28.122Z,3.95
2023-06-23T17:19:12.997Z,4.20
2023-06-23T17:21:58.063Z,4.40
2023-06-23T17:24:45.486Z,4.18
2023-06-23T17:27:30.254Z,3.42
2023-06-23T17:30:16.428Z,3.40
2023-06-23T17:33:01.578Z,3.40
2023-06-23T17:35:46.221Z,3.45
2023-06-23T17:38:31.163Z,4.05
2023-06-23T17:41:17.074Z,3.63
2023-06-23T17:44:01.718Z,3.35
2023-06-23T17:46:46.542Z,3.15
2023-06-23T17:49:31.647Z,3.42
2023-06-23T17:52:16.422Z,3.10
2023-06-23T17:55:01.083Z,3.53
2023-06-23T17:57:46.168Z,2.97
2023-06-23T18:00:31.008Z,3.40
2023-06-23T18:03:16.692Z,3.00
2023-06-23T18:06:01.723Z,3.30
2023-06-23T18:08:46.810Z,3.25
2023-06-23T18:11:32.065Z,2.90
2023-06-23T18:14:16.966Z,3.38
2023-06-23T18:17:02.306Z,3.35
2023-06-23T18:19:47.152Z,3.78
2023-06-23T18:22:32.224Z,4.00
2023-06-23T18:25:17.471Z,4.00
2023-06-23T18:28:02.326Z,4.10
2023-06-23T18:30:47.478Z,3.80
2023-06-23T18:33:32.392Z,3.97
2023-06-23T18:36:17.165Z,3.55
2023-06-23T18:39:02.172Z,3.97
2023-06-23T18:41:47.312Z,3.97
2023-06-23T18:44:32.792Z,3.85
2023-06-23T18:47:18.210Z,3.55
2023-06-23T18:50:03.604Z,3.78
2023-06-23T18:52:48.549Z,3.78
2023-06-23T18:55:33.573Z,3.22
2023-06-23T18:58:18.591Z,3.25
2023-06-23T19:01:03.517Z,3.95
2023-06-23T19:03:50.891Z,3.30
2023-06-23T19:06:36.496Z,3.38
2023-06-23T19:09:21.442Z,2.80
2023-06-23T19:12:09.602Z,3.38
2023-06-23T19:14:54.510Z,3.60
2023-06-23T19:17:41.159Z,4.35
2023-06-23T19:20:25.951Z,3.78
2023-06-23T19:23:11.038Z,4.38
2023-06-23T19:25:58.591Z,4.03
2023-06-23T19:28:43.819Z,4.00
2023-06-23T19:31:28.479Z,3.35
2023-06-23T19:34:13.928Z,3.05
2023-06-23T19:36:59.935Z,3.10
2023-06-23T19:42:36.055Z,3.08
2023-06-23T19:45:20.890Z,2.63
2023-06-23T19:48:05.980Z,2.83
2023-06-23T19:50:51.892Z,2.85
2023-06-23T19:53:36.467Z,2.50
2023-06-23T19:56:21.685Z,2.88
2023-06-23T19:59:06.690Z,2.95
2023-06-23T20:01:52.055Z,2.60
2023-06-23T20:04:37.255Z,2.80
2023-06-23T20:07:22.502Z,2.85
2023-06-23T20:10:08.286Z,2.72
2023-06-23T20:12:53.281Z,3.05
2023-06-23T20:15:38.237Z,2.60
2023-06-23T20:18:25.236Z,2.72
2023-06-23T20:21:10.513Z,2.67
2023-06-23T20:23:56.161Z,2.47
2023-06-23T20:26:41.041Z,2.63
2023-06-23T20:29:25.834Z,2.63
2023-06-23T20:32:13.971Z,2.67
2023-06-23T20:34:59.307Z,2.45
2023-06-23T20:37:44.477Z,2.72
2023-06-23T20:40:29.435Z,2.95
2023-06-23T20:43:14.268Z,2.90
2023-06-23T20:45:59.012Z,2.47
2023-06-23T20:48:43.780Z,2.97
2023-06-23T20:51:28.870Z,3.22
2023-06-23T20:54:13.575Z,2.70
2023-06-23T20:56:58.645Z,3.20
2023-06-23T20:59:43.620Z,2.70
2023-06-23T21:02:28.571Z,2.88
2023-06-23T21:05:13.586Z,3.03
2023-06-23T21:07:58.656Z,2.75
2023-06-23T21:13:29.032Z,2.88
2023-06-23T21:16:13.599Z,2.90
2023-06-23T21:18:58.729Z,2.63
2023-06-23T21:21:44.277Z,3.47
2023-06-23T21:24:29.175Z,2.85
2023-06-23T21:27:14.546Z,3.33
2023-06-23T21:30:00.447Z,3.20
2023-06-23T21:32:45.866Z,3.60
2023-06-23T21:35:30.546Z,3.60
2023-06-23T21:38:15.489Z,3.40
2023-06-23T21:41:00.578Z,3.20
2023-06-23T21:43:45.793Z,3.47
2023-06-23T21:46:30.765Z,3.75
2023-06-23T21:49:15.621Z,2.70
2023-06-23T21:52:00.634Z,3.67
2023-06-23T21:54:45.669Z,3.58
2023-06-23T21:57:30.841Z,3.28
2023-06-23T22:00:16.009Z,3.85
2023-06-23T22:03:03.979Z,3.20
2023-06-23T22:05:49.681Z,3.47
2023-06-23T22:08:34.579Z,3.22
2023-06-23T22:11:19.253Z,3.13
2023-06-23T22:14:04.224Z,3.33
2023-06-23T22:16:50.793Z,3.28
2023-06-23T22:19:37.109Z,3.10
2023-06-23T22:22:21.564Z,3.30
2023-06-23T22:25:07.261Z,3.15
2023-06-23T22:27:52.212Z,3.60
2023-06-23T22:30:37.343Z,3.75
2023-06-23T22:33:23.807Z,3.80
2023-06-23T22:36:08.742Z,3.90
2023-06-23T22:38:53.709Z,3.20
2023-06-23T22:41:38.593Z,3.60
2023-06-23T22:44:25.198Z,3.85
2023-06-23T22:47:10.053Z,3.55
2023-06-23T22:49:55.029Z,3.55
2023-06-23T22:52:39.940Z,3.45
2023-06-23T22:55:24.998Z,3.90
2023-06-23T22:58:10.028Z,4.40
2023-06-23T23:00:55.442Z,4.70
2023-06-23T23:03:40.450Z,4.60
2023-06-23T23:06:25.520Z,4.70
2023-06-23T23:09:10.908Z,4.30
2023-06-23T23:11:55.389Z,4.45
2023-06-23T23:14:40.790Z,4.50
2023-06-23T23:17:26.014Z,4.43
2023-06-23T23:20:11.484Z,4.93
2023-06-23T23:22:56.260Z,4.80
2023-06-23T23:25:41.294Z,4.55
2023-06-23T23:28:29.457Z,4.82
2023-06-23T23:31:15.690Z,5.00
2023-06-23T23:34:03.263Z,4.97
2023-06-23T23:36:48.769Z,5.20
2023-06-23T23:39:34.239Z,4.93
2023-06-23T23:42:18.987Z,4.72
2023-06-23T23:45:03.932Z,5.00
2023-06-23T23:47:48.969Z,4.75
2023-06-23T23:50:34.584Z,4.60
2023-06-23T23:53:19.543Z,4.85
2023-06-23T23:56:04.996Z,4.82
2023-06-23T23:58:50.395Z,4.60
